createdAt,value
2023-04-15T00:03:08.931Z,71
2023-04-15T00:15:08.746Z,71
2023-04-15T00:27:08.946Z,71.5
2023-04-15T00:39:08.844Z,73.5
2023-04-15T00:51:08.861Z,74.5
2023-04-15T01:03:09.268Z,75
2023-04-15T01:15:08.956Z,73.5
2023-04-15T01:27:08.862Z,70.5
2023-04-15T01:39:08.845Z,73
2023-04-15T01:51:08.981Z,72.5
2023-04-15T02:03:09.110Z,72.5
2023-04-15T02:15:08.901Z,75
2023-04-15T02:27:08.879Z,74
2023-04-15T02:39:09.009Z,71
2023-04-15T02:51:08.998Z,73
2023-04-15T03:03:09.152Z,71
2023-04-15T03:15:09.112Z,71.5
2023-04-15T03:27:09.057Z,70
2023-04-15T03:39:09.034Z,70.5
2023-04-15T03:51:08.966Z,69.5
2023-04-15T04:03:09.452Z,69
2023-04-15T04:15:09.130Z,69.5
2023-04-15T04:27:09.105Z,69.5
2023-04-15T04:39:09.040Z,73
2023-04-15T04:51:09.011Z,71.5
2023-04-15T05:03:09.393Z,70.5
2023-04-15T05:15:09.124Z,69
2023-04-15T05:27:09.077Z,71.5
2023-04-15T05:39:09.287Z,69.5
2023-04-15T05:51:09.192Z,71.5
2023-04-15T06:03:09.208Z,70.5
2023-04-15T06:15:09.084Z,71.5
2023-04-15T06:27:09.271Z,53.5
2023-04-15T06:39:09.239Z,48.5
2023-04-15T06:51:09.180Z,46.5
2023-04-15T07:03:09.179Z,43
2023-04-15T07:15:09.300Z,40.5
2023-04-15T07:27:09.229Z,38.5
2023-04-15T07:39:09.240Z,36
2023-04-15T07:51:09.341Z,36.5
2023-04-15T08:03:09.469Z,35.5
2023-04-15T08:15:09.657Z,34.5
2023-04-15T08:27:09.246Z,36.5
2023-04-15T08:39:09.406Z,36.5
2023-04-15T08:51:09.366Z,32
2023-04-15T09:03:09.480Z,31.5
2023-04-15T09:15:09.514Z,33.5
2023-04-15T09:27:09.404Z,36.5
2023-04-15T09:39:09.404Z,35.5
2023-04-15T09:51:09.305Z,31
2023-04-15T10:03:09.644Z,40
2023-04-15T10:15:09.494Z,50
2023-04-15T10:27:09.534Z,50
2023-04-15T10:39:09.388Z,50
2023-04-15T10:51:09.592Z,50
2023-04-15T11:03:09.777Z,50.5
2023-04-15T11:15:09.484Z,50.5
2023-04-15T11:27:09.390Z,49.5
2023-04-15T11:39:09.573Z,48.5
2023-04-15T11:51:09.558Z,48.5
2023-04-15T12:03:09.797Z,48.5
2023-04-15T12:15:09.471Z,49
2023-04-15T12:27:09.620Z,48.5
2023-04-15T12:39:09.541Z,48
2023-04-15T12:51:09.522Z,48
2023-04-15T13:03:09.708Z,46.5
2023-04-15T13:15:09.661Z,47.5
2023-04-15T13:27:09.569Z,46.5
2023-04-15T13:39:09.543Z,46.5
2023-04-15T13:51:09.678Z,48
2023-04-15T14:03:09.730Z,48.5
2023-04-15T14:15:09.583Z,48.5
2023-04-15T14:27:09.761Z,48.5
2023-04-15T14:39:09.798Z,48.5
2023-04-15T14:51:09.743Z,48.5
2023-04-15T15:03:09.760Z,48.5
2023-04-15T15:15:19.787Z,48.5
2023-04-15T15:27:09.785Z,47.5
2023-04-15T15:39:09.751Z,46.5
2023-04-15T15:51:09.681Z,46.5
2023-04-15T16:03:09.920Z,48
2023-04-15T16:15:10.613Z,48
2023-04-15T16:27:09.789Z,48
2023-04-15T16:39:09.778Z,48
2023-04-15T16:51:09.926Z,48
2023-04-15T17:03:10.019Z,49
2023-04-15T17:15:09.842Z,49.5
2023-04-15T17:27:09.756Z,50
2023-04-15T17:39:09.961Z,50
2023-04-15T17:51:09.882Z,50
2023-04-15T18:03:09.995Z,50
2023-04-15T18:15:09.829Z,50
2023-04-15T18:27:09.979Z,50
2023-04-15T18:39:09.926Z,50
2023-04-15T18:51:09.897Z,50
2023-04-15T19:03:10.047Z,50
2023-04-15T19:15:10.062Z,50.5
2023-04-15T19:27:09.943Z,50.5
2023-04-15T19:39:09.922Z,50.5
2023-04-15T19:51:10.095Z,51.5
2023-04-15T20:03:10.175Z,52
2023-04-15T20:15:10.027Z,52
2023-04-15T20:27:09.983Z,52
2023-04-15T20:39:10.093Z,52
2023-04-15T20:51:10.084Z,52
2023-04-15T21:03:10.133Z,52
2023-04-15T21:15:10.047Z,52
2023-04-15T21:27:10.135Z,52
2023-04-15T21:39:10.085Z,52
2023-04-15T21:51:10.027Z,52
2023-04-15T22:03:10.397Z,52
2023-04-15T22:15:10.189Z,52
2023-04-15T22:27:10.111Z,52
2023-04-15T22:39:10.056Z,52
2023-04-15T22:51:10.222Z,52
2023-04-15T23:03:10.288Z,52
2023-04-15T23:15:10.172Z,52
2023-04-15T23:27:10.218Z,52
2023-04-15T23:39:10.387Z,52
2023-04-15T23:51:10.298Z,52
